createdAt,value
2022-11-26T00:02:29.342Z,20.63
2022-11-26T00:04:59.046Z,18.67
2022-11-26T00:07:30.601Z,21.53
2022-11-26T00:09:59.708Z,22.77
2022-11-26T00:12:35.291Z,27.10
2022-11-26T00:15:23.888Z,27.10
2022-11-26T00:17:53.268Z,23.73
2022-11-26T00:20:30.999Z,24.17
2022-11-26T00:23:02.408Z,22.57
2022-11-26T00:25:51.417Z,27.13
2022-11-26T00:28:38.403Z,21.37
2022-11-26T00:31:15.351Z,23.03
2022-11-26T00:33:42.596Z,22.13
2022-11-26T00:36:35.961Z,18.63
2022-11-26T00:39:24.487Z,24.77
2022-11-26T00:41:52.515Z,20.57
2022-11-26T00:44:24.180Z,26.13
2022-11-26T00:46:52.063Z,24.60
2022-11-26T00:49:19.323Z,22.90
2022-11-26T00:51:47.619Z,23.97
2022-11-26T00:54:18.492Z,26.27
2022-11-26T00:56:47.721Z,27.77
2022-11-26T00:59:21.095Z,22.83
2022-11-26T01:01:48.749Z,21.13
2022-11-26T01:04:15.762Z,26.33
2022-11-26T01:06:45.746Z,23.63
2022-11-26T01:09:20.478Z,26.00
2022-11-26T01:11:53.522Z,25.40
2022-11-26T01:14:24.721Z,19.93
2022-11-26T01:16:53.345Z,25.60
2022-11-26T01:19:20.537Z,22.57
2022-11-26T01:21:47.597Z,29.17
2022-11-26T01:24:14.568Z,28.00
2022-11-26T01:26:44.962Z,26.93
2022-11-26T01:29:19.969Z,29.20
2022-11-26T01:31:47.713Z,27.30
2022-11-26T01:34:15.405Z,28.57
2022-11-26T01:36:43.083Z,27.80
2022-11-26T01:39:17.347Z,28.60
2022-11-26T01:42:14.680Z,29.10
2022-11-26T01:44:41.798Z,28.70
2022-11-26T01:47:28.398Z,29.77
2022-11-26T01:50:32.178Z,28.67
2022-11-26T01:53:14.911Z,24.63
2022-11-26T01:55:59.287Z,25.30
2022-11-26T01:58:40.564Z,25.13
2022-11-26T02:01:08.328Z,21.77
2022-11-26T02:04:00.101Z,25.60
2022-11-26T02:06:33.767Z,25.37
2022-11-26T02:09:06.843Z,27.00
2022-11-26T02:11:34.367Z,26.57
2022-11-26T02:14:27.957Z,24.27
2022-11-26T02:18:01.065Z,27.30
2022-11-26T02:20:53.877Z,27.07
2022-11-26T02:24:20.792Z,25.97
2022-11-26T02:27:18.236Z,26.33
2022-11-26T02:30:10.668Z,22.03
2022-11-26T02:33:15.740Z,27.23
2022-11-26T02:36:22.224Z,26.63
2022-11-26T02:38:50.146Z,26.53
2022-11-26T02:41:17.146Z,28.07
2022-11-26T02:43:44.517Z,28.87
2022-11-26T02:46:18.345Z,27.70
2022-11-26T02:48:49.936Z,27.77
2022-11-26T02:51:29.475Z,26.30
2022-11-26T02:54:00.574Z,30.10
2022-11-26T02:56:29.238Z,29.30
2022-11-26T02:58:57.309Z,28.70
2022-11-26T03:01:47.532Z,27.37
2022-11-26T03:04:25.501Z,25.67
2022-11-26T03:06:56.320Z,24.53
2022-11-26T03:09:24.052Z,28.60
2022-11-26T03:11:51.197Z,27.27
2022-11-26T03:14:18.182Z,19.50
2022-11-26T03:16:45.191Z,26.03
2022-11-26T03:19:12.185Z,30.50
2022-11-26T03:21:39.122Z,29.27
2022-11-26T03:24:06.502Z,24.67
2022-11-26T03:26:33.441Z,29.17
2022-11-26T03:29:00.453Z,29.10
2022-11-26T03:31:27.466Z,23.93
2022-11-26T03:33:54.467Z,30.87
2022-11-26T03:36:21.690Z,28.67
2022-11-26T03:38:48.936Z,34.00
2022-11-26T03:41:15.916Z,26.90
2022-11-26T03:43:42.914Z,22.00
2022-11-26T03:46:09.928Z,31.23
2022-11-26T03:48:36.970Z,31.40
2022-11-26T03:51:04.057Z,34.90
2022-11-26T03:53:31.096Z,33.33
2022-11-26T03:55:58.115Z,39.97
2022-11-26T03:58:25.217Z,32.00
2022-11-26T04:00:52.287Z,34.67
2022-11-26T04:03:19.651Z,30.33
2022-11-26T04:05:46.849Z,31.83
2022-11-26T04:08:13.949Z,28.87
2022-11-26T04:10:40.917Z,28.67
2022-11-26T04:13:08.013Z,34.23
2022-11-26T04:15:35.587Z,32.87
2022-11-26T04:18:02.625Z,36.33
2022-11-26T04:20:29.673Z,35.60
2022-11-26T04:22:56.785Z,32.87
2022-11-26T04:25:23.864Z,27.73
2022-11-26T04:27:50.881Z,39.23
2022-11-26T04:30:18.080Z,39.67
2022-11-26T04:32:45.314Z,40.37
2022-11-26T04:35:12.311Z,38.33
2022-11-26T04:37:39.311Z,32.57
2022-11-26T04:40:07.497Z,29.70
2022-11-26T04:42:35.337Z,28.30
2022-11-26T04:45:02.652Z,30.23
2022-11-26T04:47:29.703Z,32.73
2022-11-26T04:49:56.653Z,37.57
2022-11-26T04:52:23.820Z,35.67
2022-11-26T04:54:50.813Z,35.33
2022-11-26T04:57:17.812Z,40.00
2022-11-26T04:59:44.899Z,41.63
2022-11-26T05:02:11.978Z,31.60
2022-11-26T05:04:39.122Z,45.60
2022-11-26T05:07:06.360Z,33.20
2022-11-26T05:09:33.457Z,36.40
2022-11-26T05:12:00.668Z,40.10
2022-11-26T05:14:27.645Z,36.80
2022-11-26T05:16:54.721Z,34.60
2022-11-26T05:19:21.767Z,33.67
2022-11-26T05:21:48.821Z,26.87
2022-11-26T05:24:15.819Z,31.57
2022-11-26T05:26:42.837Z,30.47
2022-11-26T05:29:09.855Z,30.27
2022-11-26T05:31:37.129Z,32.57
2022-11-26T05:34:04.337Z,29.40
2022-11-26T05:36:31.361Z,26.63
2022-11-26T05:38:58.337Z,29.50
2022-11-26T05:41:25.392Z,30.03
2022-11-26T05:43:52.446Z,31.00
2022-11-26T05:46:20.064Z,28.77
2022-11-26T05:48:47.168Z,32.27
2022-11-26T05:51:14.208Z,30.20
2022-11-26T05:53:41.326Z,31.53
2022-11-26T05:56:08.571Z,33.73
2022-11-26T05:58:35.715Z,32.90
2022-11-26T06:01:09.281Z,30.53
2022-11-26T06:03:37.658Z,34.50
2022-11-26T06:06:05.922Z,33.77
2022-11-26T06:08:33.416Z,34.80
2022-11-26T06:11:00.418Z,29.73
2022-11-26T06:13:27.609Z,32.80
2022-11-26T06:16:00.264Z,31.27
2022-11-26T06:18:27.237Z,29.37
2022-11-26T06:20:54.595Z,31.67
2022-11-26T06:23:21.585Z,32.37
2022-11-26T06:25:48.527Z,31.17
2022-11-26T06:28:15.849Z,31.10
2022-11-26T06:30:45.892Z,26.10
2022-11-26T06:33:13.524Z,30.33
2022-11-26T06:35:40.577Z,29.50
2022-11-26T06:38:08.973Z,30.30
2022-11-26T06:40:36.175Z,29.83
2022-11-26T06:43:03.362Z,29.23
2022-11-26T06:45:30.917Z,26.10
2022-11-26T06:47:57.936Z,27.90
2022-11-26T06:50:24.942Z,25.40
2022-11-26T06:53:27.492Z,26.97
2022-11-26T06:55:54.429Z,27.40
2022-11-26T06:58:25.076Z,27.97
2022-11-26T07:00:52.271Z,27.90
2022-11-26T07:03:23.789Z,25.50
2022-11-26T07:05:51.982Z,26.70
2022-11-26T07:08:19.042Z,25.30
2022-11-26T07:10:49.009Z,25.10
2022-11-26T07:13:16.425Z,27.77
2022-11-26T07:15:43.446Z,22.30
2022-11-26T07:18:10.507Z,25.27
2022-11-26T07:20:38.036Z,25.80
2022-11-26T07:23:05.234Z,26.10
2022-11-26T07:25:32.254Z,26.90
2022-11-26T07:27:59.293Z,26.07
2022-11-26T07:30:26.440Z,24.83
2022-11-26T07:32:53.558Z,24.33
2022-11-26T07:35:20.646Z,24.37
2022-11-26T07:37:47.841Z,26.57
2022-11-26T07:40:14.926Z,25.73
2022-11-26T07:42:41.920Z,24.27
2022-11-26T07:45:09.507Z,25.67
2022-11-26T07:47:36.880Z,23.07
2022-11-26T07:50:05.085Z,22.60
2022-11-26T07:52:32.133Z,22.10
2022-11-26T07:54:59.155Z,21.40
2022-11-26T07:57:26.234Z,23.03
2022-11-26T07:59:53.199Z,23.20
2022-11-26T08:02:20.279Z,20.73
2022-11-26T08:04:47.391Z,20.77
2022-11-26T08:07:21.885Z,21.07
2022-11-26T08:09:51.557Z,21.10
2022-11-26T08:12:18.570Z,19.13
2022-11-26T08:14:45.538Z,20.47
2022-11-26T08:17:12.668Z,19.87
2022-11-26T08:19:45.688Z,18.63
2022-11-26T08:22:12.678Z,19.73
2022-11-26T08:24:40.218Z,18.60
2022-11-26T08:27:07.595Z,18.13
2022-11-26T08:29:37.342Z,17.40
2022-11-26T08:32:05.083Z,16.97
2022-11-26T08:34:33.586Z,18.17
2022-11-26T08:37:00.584Z,18.53
2022-11-26T08:39:27.727Z,18.17
2022-11-26T08:41:55.531Z,17.20
2022-11-26T08:44:22.830Z,15.70
2022-11-26T08:46:50.524Z,16.43
2022-11-26T08:49:20.689Z,16.00
2022-11-26T08:51:48.012Z,14.00
2022-11-26T08:54:15.060Z,15.43
2022-11-26T08:56:42.288Z,16.43
2022-11-26T08:59:09.335Z,14.73
2022-11-26T09:01:36.623Z,14.83
2022-11-26T09:04:05.099Z,14.23
2022-11-26T09:06:38.370Z,14.27
2022-11-26T09:09:12.496Z,15.10
2022-11-26T09:11:57.611Z,15.97
2022-11-26T09:14:29.476Z,14.50
2022-11-26T09:16:58.291Z,14.80
2022-11-26T09:19:25.732Z,13.83
2022-11-26T09:21:52.886Z,14.00
2022-11-26T09:24:21.199Z,14.27
2022-11-26T09:26:48.559Z,14.33
2022-11-26T09:29:21.078Z,13.43
2022-11-26T09:34:37.794Z,13.50
2022-11-26T09:37:05.288Z,13.73
2022-11-26T09:39:32.505Z,13.67
2022-11-26T09:42:09.067Z,13.17
2022-11-26T09:45:26.405Z,14.57
2022-11-26T09:47:54.100Z,13.27
2022-11-26T09:50:32.328Z,13.73
2022-11-26T09:53:33.322Z,11.40
2022-11-26T09:56:02.205Z,10.23
2022-11-26T09:59:01.548Z,10.10
2022-11-26T10:01:32.454Z,8.47
2022-11-26T10:04:00.475Z,9.50
2022-11-26T10:07:01.116Z,8.60
2022-11-26T10:10:16.402Z,8.50
2022-11-26T10:13:33.014Z,8.93
2022-11-26T10:16:39.228Z,9.13
2022-11-26T10:19:46.000Z,9.80
2022-11-26T10:22:39.438Z,10.10
2022-11-26T10:25:22.591Z,8.57
2022-11-26T10:27:51.054Z,10.00
2022-11-26T10:30:30.722Z,8.70
2022-11-26T10:33:02.268Z,7.73
2022-11-26T10:35:30.290Z,8.60
2022-11-26T10:37:58.445Z,8.93
2022-11-26T10:40:33.042Z,7.63
2022-11-26T10:43:08.634Z,7.93
2022-11-26T10:45:55.839Z,7.67
2022-11-26T10:48:30.432Z,6.90
2022-11-26T10:51:28.550Z,6.20
2022-11-26T10:54:05.012Z,6.53
2022-11-26T10:56:56.179Z,5.47
2022-11-26T10:59:31.402Z,7.13
2022-11-26T11:02:26.470Z,6.53
2022-11-26T11:05:04.117Z,5.83
2022-11-26T11:07:41.229Z,6.67
2022-11-26T11:10:11.583Z,5.70
2022-11-26T11:12:49.361Z,4.87
2022-11-26T11:15:33.782Z,5.30
2022-11-26T11:18:15.509Z,4.80
2022-11-26T11:20:53.411Z,5.03
2022-11-26T11:23:46.133Z,5.93
2022-11-26T11:26:24.827Z,6.23
2022-11-26T11:28:56.353Z,6.70
2022-11-26T11:31:26.743Z,7.23
2022-11-26T11:34:32.732Z,7.03
2022-11-26T11:37:14.906Z,8.20
2022-11-26T11:39:43.121Z,7.93
2022-11-26T11:42:29.393Z,8.33
2022-11-26T11:44:58.419Z,7.60
2022-11-26T11:47:46.769Z,8.33
2022-11-26T11:51:18.673Z,8.07
2022-11-26T11:54:29.465Z,7.33
2022-11-26T11:57:54.488Z,8.10
2022-11-26T12:01:00.145Z,6.63
2022-11-26T12:03:49.748Z,6.23
2022-11-26T12:06:39.941Z,6.57
2022-11-26T12:09:38.985Z,6.60
2022-11-26T12:12:33.688Z,6.17
2022-11-26T12:15:31.444Z,5.77
2022-11-26T12:18:31.713Z,6.90
2022-11-26T12:21:15.636Z,7.03
2022-11-26T12:23:58.086Z,6.67
2022-11-26T12:26:45.227Z,6.60
2022-11-26T12:29:58.442Z,6.27
2022-11-26T12:33:15.442Z,6.57
2022-11-26T12:35:59.180Z,7.17
2022-11-26T12:38:45.086Z,7.40
2022-11-26T12:41:28.689Z,6.57
2022-11-26T12:44:28.178Z,6.50
2022-11-26T12:47:33.012Z,6.20
2022-11-26T12:50:05.663Z,6.13
2022-11-26T12:52:42.428Z,6.23
2022-11-26T12:55:41.807Z,6.03
2022-11-26T12:58:24.074Z,6.27
2022-11-26T13:00:54.548Z,6.00
2022-11-26T13:03:33.621Z,6.53
2022-11-26T13:06:45.517Z,6.23
2022-11-26T13:09:50.325Z,6.10
2022-11-26T13:12:42.440Z,6.43
2022-11-26T13:15:23.449Z,7.10
2022-11-26T13:17:51.666Z,7.17
2022-11-26T13:20:39.934Z,5.97
2022-11-26T13:23:53.332Z,6.33
2022-11-26T13:26:57.403Z,6.37
2022-11-26T13:29:30.199Z,6.67
2022-11-26T13:32:35.012Z,7.70
2022-11-26T13:35:57.112Z,7.03
2022-11-26T13:39:20.431Z,6.70
2022-11-26T13:42:44.300Z,7.33
2022-11-26T13:45:46.976Z,7.43
2022-11-26T13:48:38.259Z,6.40
2022-11-26T13:51:28.321Z,5.43
2022-11-26T13:54:19.556Z,6.83
2022-11-26T13:56:48.420Z,5.90
2022-11-26T13:59:28.411Z,6.90
2022-11-26T14:01:56.357Z,6.43
2022-11-26T14:04:23.306Z,7.13
2022-11-26T14:07:05.354Z,6.33
2022-11-26T14:09:44.607Z,9.60
2022-11-26T14:12:20.217Z,7.27
2022-11-26T14:14:49.467Z,10.13
2022-11-26T14:17:31.086Z,12.67
2022-11-26T14:20:02.160Z,9.07
2022-11-26T14:22:36.779Z,8.90
2022-11-26T14:25:12.034Z,8.83
2022-11-26T14:27:59.043Z,9.07
2022-11-26T14:30:28.161Z,9.13
2022-11-26T14:33:14.395Z,9.60
2022-11-26T14:35:51.550Z,9.93
2022-11-26T14:38:31.618Z,8.80
2022-11-26T14:41:00.981Z,8.63
2022-11-26T14:43:29.555Z,9.20
2022-11-26T14:46:10.158Z,9.53
2022-11-26T14:48:48.147Z,9.53
2022-11-26T14:51:26.444Z,10.57
2022-11-26T14:53:55.295Z,9.83
2022-11-26T14:56:25.137Z,10.30
2022-11-26T14:59:01.908Z,9.97
2022-11-26T15:01:29.658Z,9.77
2022-11-26T15:04:03.639Z,10.20
2022-11-26T15:06:43.169Z,10.40
2022-11-26T15:09:38.986Z,14.27
2022-11-26T15:12:15.491Z,33.43
2022-11-26T15:14:58.870Z,16.50
2022-11-26T15:17:30.510Z,19.30
2022-11-26T15:20:02.816Z,16.10
2022-11-26T15:22:42.444Z,14.07
2022-11-26T15:25:25.088Z,29.13
2022-11-26T15:28:00.875Z,16.73
2022-11-26T15:30:37.789Z,17.60
2022-11-26T15:33:14.220Z,16.93
2022-11-26T15:35:41.719Z,15.37
2022-11-26T15:38:20.334Z,13.97
2022-11-26T15:41:18.373Z,14.53
2022-11-26T15:43:51.716Z,13.80
2022-11-26T15:46:34.265Z,14.87
2022-11-26T15:49:17.846Z,14.67
2022-11-26T15:51:57.041Z,14.53
2022-11-26T15:54:49.588Z,15.17
2022-11-26T15:57:37.545Z,14.77
2022-11-26T16:00:22.515Z,15.80
2022-11-26T16:02:51.458Z,13.53
2022-11-26T16:05:35.779Z,12.50
2022-11-26T16:08:27.111Z,14.43
2022-11-26T16:11:04.557Z,14.27
2022-11-26T16:13:34.665Z,14.90
2022-11-26T16:16:09.470Z,16.10
2022-11-26T16:18:54.146Z,15.33
2022-11-26T16:21:30.702Z,16.10
2022-11-26T16:24:05.940Z,15.47
2022-11-26T16:26:57.630Z,17.57
2022-11-26T16:29:26.781Z,12.80
2022-11-26T16:31:53.896Z,15.43
2022-11-26T16:34:21.560Z,17.20
2022-11-26T16:36:48.676Z,17.37
2022-11-26T16:39:17.500Z,17.57
2022-11-26T16:41:44.495Z,19.10
2022-11-26T16:44:11.563Z,16.73
2022-11-26T16:46:40.964Z,15.53
2022-11-26T16:49:09.849Z,19.83
2022-11-26T16:51:36.886Z,18.07
2022-11-26T16:54:03.971Z,17.47
2022-11-26T16:56:38.485Z,17.87
2022-11-26T16:59:18.354Z,17.97
2022-11-26T17:01:45.653Z,19.37
2022-11-26T17:04:14.472Z,17.47
2022-11-26T17:06:43.307Z,17.53
2022-11-26T17:09:20.341Z,17.57
2022-11-26T17:11:47.593Z,16.73
2022-11-26T17:14:14.725Z,16.70
2022-11-26T17:16:42.697Z,18.47
2022-11-26T17:19:15.055Z,18.87
2022-11-26T17:21:42.199Z,18.67
2022-11-26T17:24:09.210Z,21.53
2022-11-26T17:26:36.285Z,22.57
2022-11-26T17:29:03.369Z,43.10
2022-11-26T17:31:30.631Z,33.20
2022-11-26T17:33:57.785Z,31.63
2022-11-26T17:36:24.902Z,31.77
2022-11-26T17:38:52.097Z,38.27
2022-11-26T17:41:19.403Z,40.97
2022-11-26T17:43:46.573Z,34.40
2022-11-26T17:46:21.597Z,24.17
2022-11-26T17:48:51.414Z,34.43
2022-11-26T17:51:21.414Z,34.57
2022-11-26T17:53:48.505Z,36.63
2022-11-26T17:56:23.031Z,25.73
2022-11-26T17:58:50.568Z,24.63
2022-11-26T18:01:18.393Z,28.50
2022-11-26T18:03:46.603Z,24.07
2022-11-26T18:07:10.632Z,22.90
2022-11-26T18:09:38.462Z,21.93
2022-11-26T18:12:08.509Z,22.17
2022-11-26T18:14:43.626Z,22.40
2022-11-26T18:17:11.673Z,21.00
2022-11-26T18:19:43.588Z,21.63
2022-11-26T18:22:17.783Z,23.60
2022-11-26T18:24:56.488Z,20.80
2022-11-26T18:27:28.602Z,20.40
2022-11-26T18:29:55.611Z,21.33
2022-11-26T18:32:22.819Z,21.27
2022-11-26T18:34:50.596Z,19.83
2022-11-26T18:37:18.272Z,19.90
2022-11-26T18:39:45.364Z,20.27
2022-11-26T18:45:00.932Z,18.67
2022-11-26T18:47:27.940Z,19.20
2022-11-26T18:49:54.930Z,17.30
2022-11-26T18:52:21.906Z,18.27
2022-11-26T18:54:48.929Z,18.33
2022-11-26T18:57:15.885Z,18.37
2022-11-26T18:59:43.133Z,16.80
2022-11-26T19:02:11.466Z,16.90
2022-11-26T19:04:39.244Z,18.43
2022-11-26T19:07:06.259Z,18.47
2022-11-26T19:09:33.260Z,18.63
2022-11-26T19:12:00.318Z,18.80
2022-11-26T19:14:27.404Z,19.40
2022-11-26T19:16:54.488Z,17.80
2022-11-26T19:19:22.559Z,20.17
2022-11-26T19:21:50.259Z,19.07
2022-11-26T19:24:17.289Z,19.17
2022-11-26T19:26:44.274Z,21.23
2022-11-26T19:29:13.128Z,20.57
2022-11-26T19:31:40.511Z,20.17
2022-11-26T19:34:13.946Z,19.97
2022-11-26T19:36:41.488Z,19.63
2022-11-26T19:39:08.934Z,20.77
2022-11-26T19:41:36.235Z,23.47
2022-11-26T19:44:05.293Z,21.67
2022-11-26T19:46:34.985Z,21.03
2022-11-26T19:49:02.135Z,17.97
2022-11-26T19:51:29.158Z,21.80
2022-11-26T19:53:57.043Z,21.93
2022-11-26T19:56:29.664Z,20.43
2022-11-26T19:59:01.980Z,25.50
2022-11-26T20:01:34.476Z,23.97
2022-11-26T20:04:11.595Z,26.37
2022-11-26T20:06:39.061Z,19.17
2022-11-26T20:09:09.236Z,23.57
2022-11-26T20:11:40.186Z,21.83
2022-11-26T20:14:11.400Z,24.40
2022-11-26T20:16:44.019Z,27.97
2022-11-26T20:19:12.552Z,23.97
2022-11-26T20:21:40.100Z,24.43
2022-11-26T20:24:14.857Z,24.67
2022-11-26T20:26:45.076Z,25.73
2022-11-26T20:29:16.937Z,24.87
2022-11-26T20:31:49.756Z,25.47
2022-11-26T20:34:22.238Z,26.80
2022-11-26T20:36:52.280Z,25.23
2022-11-26T20:39:23.301Z,26.87
2022-11-26T20:41:50.786Z,26.83
2022-11-26T20:44:17.848Z,28.00
2022-11-26T20:46:44.868Z,29.13
2022-11-26T20:49:12.076Z,28.10
2022-11-26T20:51:39.527Z,27.20
2022-11-26T20:54:06.635Z,29.00
2022-11-26T20:56:33.702Z,26.80
2022-11-26T20:59:02.524Z,28.23
2022-11-26T21:01:31.445Z,30.17
2022-11-26T21:03:58.791Z,31.23
2022-11-26T21:06:31.694Z,30.03
2022-11-26T21:09:05.433Z,28.80
2022-11-26T21:11:32.461Z,31.07
2022-11-26T21:14:01.474Z,29.57
2022-11-26T21:16:29.792Z,30.30
2022-11-26T21:18:58.157Z,27.20
2022-11-26T21:21:28.062Z,22.17
2022-11-26T21:23:56.507Z,17.27
2022-11-26T21:26:26.057Z,21.33
2022-11-26T21:28:57.256Z,33.27
2022-11-26T21:31:26.392Z,22.77
2022-11-26T21:34:07.400Z,32.30
2022-11-26T21:36:36.602Z,24.73
2022-11-26T21:39:04.623Z,21.97
2022-11-26T21:41:33.732Z,19.80
2022-11-26T21:44:03.633Z,27.57
2022-11-26T21:46:37.869Z,26.40
2022-11-26T21:49:06.410Z,25.33
2022-11-26T21:51:33.545Z,27.27
2022-11-26T21:54:00.610Z,32.70
2022-11-26T21:56:31.267Z,28.03
2022-11-26T21:59:00.759Z,26.83
2022-11-26T22:01:37.807Z,25.00
2022-11-26T22:04:14.761Z,28.13
2022-11-26T22:06:43.721Z,26.73
2022-11-26T22:09:12.221Z,26.90
2022-11-26T22:11:43.602Z,24.63
2022-11-26T22:14:16.752Z,24.57
2022-11-26T22:16:44.130Z,26.30
2022-11-26T22:19:11.171Z,22.63
2022-11-26T22:21:41.544Z,27.27
2022-11-26T22:24:15.261Z,24.53
2022-11-26T22:26:43.622Z,26.37
2022-11-26T22:29:17.308Z,24.53
2022-11-26T22:31:45.103Z,24.47
2022-11-26T22:34:16.030Z,25.80
2022-11-26T22:36:44.358Z,23.27
2022-11-26T22:39:16.508Z,19.27
2022-11-26T22:41:46.010Z,23.83
2022-11-26T22:44:15.555Z,16.07
2022-11-26T22:46:42.949Z,22.50
2022-11-26T22:49:16.247Z,20.93
2022-11-26T22:51:43.743Z,27.33
2022-11-26T22:54:14.256Z,25.50
2022-11-26T22:56:41.622Z,29.33
2022-11-26T22:59:12.934Z,26.13
2022-11-26T23:01:40.593Z,28.07
2022-11-26T23:04:10.170Z,26.30
2022-11-26T23:06:39.223Z,28.60
2022-11-26T23:09:09.244Z,29.00
2022-11-26T23:11:42.404Z,29.00
2022-11-26T23:14:11.987Z,28.07
2022-11-26T23:16:42.544Z,28.57
2022-11-26T23:19:12.700Z,26.60
2022-11-26T23:21:42.705Z,28.37
2022-11-26T23:24:10.688Z,28.43
2022-11-26T23:26:40.099Z,26.67
2022-11-26T23:29:08.846Z,23.23
2022-11-26T23:31:41.400Z,19.03
2022-11-26T23:34:09.642Z,21.53
2022-11-26T23:36:38.079Z,30.33
2022-11-26T23:39:10.068Z,28.63
2022-11-26T23:41:37.141Z,31.23
2022-11-26T23:44:04.642Z,32.97
2022-11-26T23:46:35.211Z,33.77
2022-11-26T23:49:02.353Z,28.80
2022-11-26T23:51:33.075Z,26.17
2022-11-26T23:54:00.589Z,22.03
2022-11-26T23:56:33.208Z,22.00
2022-11-26T23:59:03.803Z,25.13
